createdAt,value
2018-11-28T00:02:29.965Z,101413.95
2018-11-28T00:07:32.016Z,101413.70
2018-11-28T00:12:34.489Z,101406.91
2018-11-28T00:17:36.689Z,101425.80
2018-11-28T00:22:38.861Z,101411.12
2018-11-28T00:27:41.288Z,101394.74
2018-11-28T00:32:43.457Z,101395.63
2018-11-28T00:37:45.638Z,101401.31
2018-11-28T00:42:47.792Z,101397.78
2018-11-28T00:47:49.878Z,101403.30
2018-11-28T00:52:51.972Z,101424.27
2018-11-28T00:57:54.321Z,101403.85
2018-11-28T01:02:56.586Z,101404.87
2018-11-28T01:08:06.322Z,101405.33
2018-11-28T01:13:08.635Z,101412.09
2018-11-28T01:18:10.726Z,101415.56
2018-11-28T01:23:12.756Z,101416.95
2018-11-28T01:28:14.841Z,101425.43
2018-11-28T01:33:16.850Z,101411.34
2018-11-28T01:38:19.066Z,101424.20
2018-11-28T01:43:21.459Z,101423.50
2018-11-28T01:48:23.537Z,101431.91
2018-11-28T01:53:25.539Z,101428.89
2018-11-28T01:58:27.607Z,101428.45
2018-11-28T02:03:29.663Z,101438.68
2018-11-28T02:08:31.717Z,101437.91
2018-11-28T02:13:34.030Z,101446.77
2018-11-28T02:18:36.058Z,101442.97
2018-11-28T02:23:38.331Z,101450.12
2018-11-28T02:28:40.778Z,101454.50
2018-11-28T02:33:43.418Z,101448.73
2018-11-28T02:38:45.428Z,101447.41
2018-11-28T02:43:47.733Z,101449.23
2018-11-28T02:48:49.810Z,101453.34
2018-11-28T02:53:52.150Z,101449.35
2018-11-28T02:58:54.381Z,101452.36
2018-11-28T03:03:56.459Z,101454.66
2018-11-28T03:08:58.533Z,101459.30
2018-11-28T03:14:00.595Z,101459.28
2018-11-28T03:19:02.679Z,101455.63
2018-11-28T03:24:05.251Z,101460.61
2018-11-28T03:29:07.477Z,101460.67
2018-11-28T03:34:09.625Z,101463.94
2018-11-28T03:39:11.850Z,101464.92
2018-11-28T03:44:14.082Z,101476.64
2018-11-28T03:49:16.350Z,101476.12
2018-11-28T03:54:18.389Z,101482.02
2018-11-28T03:59:20.426Z,101475.65
2018-11-28T04:04:22.481Z,101479.70
2018-11-28T04:09:24.538Z,101474.82
2018-11-28T04:14:26.591Z,101483.83
2018-11-28T04:19:28.638Z,101474.44
2018-11-28T04:24:30.793Z,101476.12
2018-11-28T04:29:32.917Z,101476.27
2018-11-28T04:34:35.259Z,101473.02
2018-11-28T04:39:37.375Z,101480.75
2018-11-28T04:44:39.438Z,101480.04
2018-11-28T04:49:48.381Z,101486.93
2018-11-28T04:54:57.344Z,101482.27
2018-11-28T04:59:59.966Z,101478.06
2018-11-28T05:05:02.019Z,101493.23
2018-11-28T05:10:06.425Z,101492.22
2018-11-28T05:15:10.719Z,101494.36
2018-11-28T05:20:13.945Z,101500.95
2018-11-28T05:25:19.650Z,101501.13
2018-11-28T05:30:23.871Z,101500.02
2018-11-28T05:35:30.610Z,101485.57
2018-11-28T05:40:32.630Z,101486.78
2018-11-28T05:45:34.766Z,101494.27
2018-11-28T05:50:37.061Z,101491.84
2018-11-28T05:55:39.101Z,101496.06
2018-11-28T06:00:41.592Z,101494.80
2018-11-28T06:05:43.646Z,101499.52
2018-11-28T06:10:45.886Z,101487.01
2018-11-28T06:15:47.937Z,101492.25
2018-11-28T06:20:50.247Z,101493.82
2018-11-28T06:25:52.427Z,101496.14
2018-11-28T06:30:54.516Z,101502.28
2018-11-28T06:35:56.616Z,101519.34
2018-11-28T06:40:58.869Z,101520.62
2018-11-28T06:46:00.963Z,101522.81
2018-11-28T06:51:03.067Z,101523.17
2018-11-28T06:56:12.394Z,101523.56
2018-11-28T07:01:14.673Z,101524.32
2018-11-28T07:06:16.705Z,101526.88
2018-11-28T07:11:19.017Z,101541.25
2018-11-28T07:16:21.093Z,101536.97
2018-11-28T07:21:23.130Z,101552.74
2018-11-28T07:26:25.166Z,101563.58
2018-11-28T07:31:27.623Z,101553.40
2018-11-28T07:36:29.666Z,101556.05
2018-11-28T07:41:31.721Z,101562.68
2018-11-28T07:46:33.761Z,101556.71
2018-11-28T07:51:36.082Z,101567.06
2018-11-28T07:56:38.118Z,101568.16
2018-11-28T08:01:40.239Z,101573.11
2018-11-28T08:06:42.289Z,101561.14
2018-11-28T08:11:44.330Z,101566.06
2018-11-28T08:16:46.408Z,101563.46
2018-11-28T08:21:48.440Z,101577.80
2018-11-28T08:26:50.834Z,101570.03
2018-11-28T08:31:52.929Z,101569.35
2018-11-28T08:36:54.981Z,101565.56
2018-11-28T08:41:57.056Z,101557.16
2018-11-28T08:46:59.094Z,101555.13
2018-11-28T08:52:01.112Z,101568.45
2018-11-28T08:57:03.193Z,101566.97
2018-11-28T09:02:06.801Z,101566.55
2018-11-28T09:07:08.840Z,101557.06
2018-11-28T09:12:10.902Z,101555.59
2018-11-28T09:17:15.266Z,101563.55
2018-11-28T09:22:15.150Z,101568.14
2018-11-28T09:27:17.207Z,101565.26
2018-11-28T09:32:20.252Z,101571.31
2018-11-28T09:37:23.037Z,101574.28
2018-11-28T09:42:25.317Z,101572.69
2018-11-28T09:47:27.359Z,101580.16
2018-11-28T09:52:29.409Z,101574.06
2018-11-28T09:57:31.481Z,101568.83
2018-11-28T10:02:33.530Z,101573.53
2018-11-28T10:07:35.602Z,101570.08
2018-11-28T10:12:37.677Z,101565.77
2018-11-28T10:17:39.871Z,101557.02
2018-11-28T10:22:42.089Z,101553.48
2018-11-28T10:27:46.237Z,101545.70
2018-11-28T10:32:48.887Z,101536.64
2018-11-28T10:37:51.014Z,101533.40
2018-11-28T10:42:56.184Z,101521.05
2018-11-28T10:47:58.621Z,101520.73
2018-11-28T10:53:00.675Z,101520.88
2018-11-28T10:58:04.527Z,101521.23
2018-11-28T11:03:12.629Z,101520.52
2018-11-28T11:08:20.366Z,101512.73
2018-11-28T11:13:28.199Z,101522.63
2018-11-28T11:18:30.288Z,101516.31
2018-11-28T11:23:32.347Z,101515.52
2018-11-28T11:28:34.751Z,101509.33
2018-11-28T11:33:36.882Z,101501.19
2018-11-28T11:38:39.137Z,101503.39
2018-11-28T11:43:41.258Z,101503.52
2018-11-28T11:48:43.363Z,101508.97
2018-11-28T11:53:45.442Z,101505.25
2018-11-28T11:58:47.478Z,101488.16
2018-11-28T12:03:49.559Z,101493.39
2018-11-28T12:08:51.833Z,101494.27
2018-11-28T12:13:53.902Z,101491.70
2018-11-28T12:18:55.947Z,101493.41
2018-11-28T12:23:58.006Z,101482.78
2018-11-28T12:29:00.095Z,101476.98
2018-11-28T12:34:02.182Z,101470.80
2018-11-28T12:39:08.170Z,101471.74
2018-11-28T12:44:10.250Z,101464.25
2018-11-28T12:49:12.571Z,101450.99
2018-11-28T12:54:14.626Z,101438.30
2018-11-28T12:59:16.670Z,101441.19
2018-11-28T13:04:18.773Z,101437.55
2018-11-28T13:09:20.810Z,101435.58
2018-11-28T13:14:22.835Z,101443.33
2018-11-28T13:19:24.857Z,101438.28
2018-11-28T13:24:26.906Z,101432.60
2018-11-28T13:29:29.789Z,101442.84
2018-11-28T13:34:31.857Z,101445.72
2018-11-28T13:39:34.258Z,101436.79
2018-11-28T13:44:36.301Z,101444.78
2018-11-28T13:49:38.317Z,101446.84
2018-11-28T13:55:36.898Z,101450.85
2018-11-28T13:59:42.581Z,101444.19
2018-11-28T14:04:44.472Z,101447.47
2018-11-28T14:09:46.542Z,101449.62
2018-11-28T14:14:48.564Z,101456.70
2018-11-28T14:19:50.619Z,101465.89
2018-11-28T14:24:53.013Z,101468.41
2018-11-28T14:29:55.211Z,101459.82
2018-11-28T14:34:57.261Z,101467.67
2018-11-28T14:39:59.646Z,101470.33
2018-11-28T14:45:01.719Z,101471.27
2018-11-28T14:50:06.461Z,101474.88
2018-11-28T14:55:10.941Z,101461.70
2018-11-28T15:00:14.824Z,101457.28
2018-11-28T15:05:22.487Z,101473.28
2018-11-28T15:10:39.814Z,101473.97
2018-11-28T15:15:41.880Z,101457.16
2018-11-28T15:20:44.160Z,101456.39
2018-11-28T15:25:46.243Z,101453.05
2018-11-28T15:30:48.355Z,101458.89
2018-11-28T15:35:50.645Z,101462.34
2018-11-28T15:40:53.025Z,101458.59
2018-11-28T15:45:55.419Z,101447.63
2018-11-28T15:50:57.471Z,101447.40
2018-11-28T15:55:59.540Z,101454.63
2018-11-28T16:01:01.753Z,101454.09
2018-11-28T16:06:04.043Z,101461.95
2018-11-28T16:11:08.588Z,101464.37
2018-11-28T16:16:10.627Z,101460.97
2018-11-28T16:21:12.724Z,101462.88
2018-11-28T16:26:14.773Z,101469.76
2018-11-28T16:31:17.646Z,101456.36
2018-11-28T16:36:26.833Z,101457.55
2018-11-28T16:41:29.185Z,101450.08
2018-11-28T16:46:31.372Z,101440.46
2018-11-28T16:51:33.381Z,101444.55
2018-11-28T16:56:35.442Z,101450.67
2018-11-28T17:01:37.739Z,101450.21
2018-11-28T17:06:39.833Z,101454.63
2018-11-28T17:11:41.861Z,101449.82
2018-11-28T17:16:44.070Z,101441.23
2018-11-28T17:21:46.134Z,101444.25
2018-11-28T17:26:48.193Z,101446.14
2018-11-28T17:31:50.289Z,101440.42
2018-11-28T17:36:53.072Z,101436.31
2018-11-28T17:41:55.149Z,101433.82
2018-11-28T17:46:57.173Z,101428.09
2018-11-28T17:51:59.217Z,101435.69
2018-11-28T17:57:01.289Z,101424.42
2018-11-28T18:02:03.365Z,101427.19
2018-11-28T18:07:05.484Z,101419.80
2018-11-28T18:12:07.621Z,101416.52
2018-11-28T18:17:09.637Z,101416.52
2018-11-28T18:22:11.685Z,101412.02
2018-11-28T18:27:13.747Z,101404.78
2018-11-28T18:32:15.914Z,101404.91
2018-11-28T18:37:18.125Z,101405.63
2018-11-28T18:42:20.601Z,101419.39
2018-11-28T18:47:22.642Z,101413.56
2018-11-28T18:52:24.674Z,101421.52
2018-11-28T18:57:26.749Z,101414.84
2018-11-28T19:02:28.789Z,101416.54
2018-11-28T19:07:30.822Z,101415.63
2018-11-28T19:12:33.350Z,101419.92
2018-11-28T19:17:35.414Z,101423.61
2018-11-28T19:22:37.409Z,101425.91
2018-11-28T19:27:39.542Z,101434.15
2018-11-28T19:32:41.616Z,101428.88
2018-11-28T19:37:43.677Z,101425.17
2018-11-28T19:42:45.782Z,101414.03
2018-11-28T19:47:47.821Z,101413.98
2018-11-28T19:52:50.022Z,101422.94
2018-11-28T19:58:06.741Z,101425.34
2018-11-28T20:03:11.465Z,101428.00
2018-11-28T20:08:14.439Z,101429.17
2018-11-28T20:13:16.667Z,101421.78
2018-11-28T20:18:18.774Z,101422.59
2018-11-28T20:23:20.805Z,101424.14
2018-11-28T20:28:23.357Z,101431.81
2018-11-28T20:33:25.779Z,101439.20
2018-11-28T20:38:30.931Z,101424.37
2018-11-28T20:43:33.035Z,101436.16
2018-11-28T20:48:35.855Z,101434.71
2018-11-28T20:53:38.245Z,101436.00
2018-11-28T20:58:40.319Z,101424.59
2018-11-28T21:03:42.874Z,101434.66
2018-11-28T21:08:45.006Z,101439.63
2018-11-28T21:13:47.028Z,101424.30
2018-11-28T21:18:50.018Z,101414.90
2018-11-28T21:23:52.100Z,101406.45
2018-11-28T21:28:54.486Z,101388.38
2018-11-28T21:33:56.534Z,101378.01
2018-11-28T21:38:58.862Z,101370.87
2018-11-28T21:44:00.930Z,101359.54
2018-11-28T21:49:03.417Z,101373.39
2018-11-28T21:54:05.525Z,101386.08
2018-11-28T21:59:07.578Z,101381.69
2018-11-28T22:04:09.586Z,101384.94
2018-11-28T22:09:11.868Z,101382.13
2018-11-28T22:14:14.251Z,101394.22
2018-11-28T22:19:16.305Z,101391.08
2018-11-28T22:24:18.821Z,101373.35
2018-11-28T22:29:21.211Z,101365.37
2018-11-28T22:34:23.260Z,101349.73
2018-11-28T22:39:25.296Z,101334.52
2018-11-28T22:44:28.218Z,101321.79
2018-11-28T22:49:30.269Z,101330.44
2018-11-28T22:54:32.330Z,101310.47
2018-11-28T22:59:34.368Z,101316.72
2018-11-28T23:04:36.410Z,101317.06
2018-11-28T23:09:38.494Z,101313.09
2018-11-28T23:14:40.606Z,101318.32
2018-11-28T23:19:42.652Z,101305.80
2018-11-28T23:24:45.662Z,101302.19
2018-11-28T23:29:47.726Z,101291.64
2018-11-28T23:34:49.872Z,101283.09
2018-11-28T23:39:52.013Z,101284.19
2018-11-28T23:44:54.097Z,101285.92
2018-11-28T23:49:56.131Z,101284.78
2018-11-28T23:54:58.206Z,101288.28
